createdAt,value
2022-09-09T00:02:11.422Z,99.90
2022-09-09T00:07:38.867Z,99.90
2022-09-09T00:12:56.807Z,99.90
2022-09-09T00:18:33.261Z,99.90
2022-09-09T00:23:50.347Z,99.90
2022-09-09T00:28:57.969Z,99.90
2022-09-09T00:34:25.594Z,99.90
2022-09-09T00:39:42.945Z,99.90
2022-09-09T00:45:25.069Z,99.90
2022-09-09T00:50:36.757Z,99.90
2022-09-09T00:55:54.870Z,99.90
2022-09-09T01:01:14.280Z,99.90
2022-09-09T01:06:40.317Z,99.90
2022-09-09T01:12:18.338Z,99.90
2022-09-09T01:17:54.560Z,99.90
2022-09-09T01:23:22.131Z,99.90
2022-09-09T01:28:29.500Z,99.90
2022-09-09T01:33:32.839Z,99.90
2022-09-09T01:38:36.861Z,99.90
2022-09-09T01:43:39.861Z,99.90
2022-09-09T01:48:44.176Z,99.90
2022-09-09T01:53:47.941Z,99.90
2022-09-09T01:58:53.388Z,99.90
2022-09-09T02:04:00.319Z,99.90
2022-09-09T02:09:08.184Z,99.90
2022-09-09T02:14:23.231Z,99.90
2022-09-09T02:19:33.615Z,99.90
2022-09-09T02:24:39.973Z,99.90
2022-09-09T02:29:45.533Z,99.90
2022-09-09T02:35:03.379Z,99.90
2022-09-09T02:40:13.188Z,99.90
2022-09-09T02:45:23.038Z,99.90
2022-09-09T02:50:39.059Z,99.90
2022-09-09T02:55:51.174Z,99.90
2022-09-09T03:00:54.183Z,99.90
2022-09-09T03:05:57.943Z,99.90
2022-09-09T03:11:04.882Z,99.90
2022-09-09T03:16:07.738Z,99.90
2022-09-09T03:21:10.658Z,99.90
2022-09-09T03:26:15.752Z,99.90
2022-09-09T03:31:20.789Z,99.90
2022-09-09T03:36:23.734Z,99.90
2022-09-09T03:41:27.370Z,99.90
2022-09-09T03:46:30.140Z,99.90
2022-09-09T03:51:33.031Z,99.90
2022-09-09T03:56:36.539Z,99.90
2022-09-09T04:01:39.315Z,99.90
2022-09-09T04:06:42.074Z,99.90
2022-09-09T04:11:44.958Z,99.90
2022-09-09T04:16:47.730Z,99.90
2022-09-09T04:21:52.217Z,99.90
2022-09-09T04:26:54.999Z,99.90
2022-09-09T04:31:57.924Z,99.90
2022-09-09T04:37:02.353Z,99.90
2022-09-09T04:42:05.300Z,99.90
2022-09-09T04:47:08.122Z,99.90
2022-09-09T04:52:10.961Z,99.90
2022-09-09T04:57:18.441Z,99.90
2022-09-09T05:02:21.805Z,99.90
2022-09-09T05:07:24.736Z,99.90
2022-09-09T05:12:27.810Z,99.90
2022-09-09T05:17:30.489Z,99.90
2022-09-09T05:22:33.198Z,99.90
2022-09-09T05:27:36.538Z,99.90
2022-09-09T05:32:39.332Z,99.90
2022-09-09T05:37:42.113Z,99.90
2022-09-09T05:42:44.807Z,99.90
2022-09-09T05:47:56.309Z,99.90
2022-09-09T05:52:59.002Z,99.90
2022-09-09T05:58:02.298Z,99.90
2022-09-09T06:03:05.356Z,99.90
2022-09-09T06:08:08.432Z,99.90
2022-09-09T06:13:11.147Z,99.90
2022-09-09T06:18:14.005Z,99.90
2022-09-09T06:23:17.229Z,99.90
2022-09-09T06:28:20.315Z,99.90
2022-09-09T06:33:23.054Z,99.90
2022-09-09T06:38:26.248Z,99.90
2022-09-09T06:43:31.809Z,99.90
2022-09-09T06:48:35.283Z,99.90
2022-09-09T06:53:40.366Z,99.90
2022-09-09T06:58:45.046Z,99.90
2022-09-09T07:03:51.847Z,99.90
2022-09-09T07:08:57.588Z,99.90
2022-09-09T07:14:01.676Z,99.90
2022-09-09T07:19:05.343Z,99.90
2022-09-09T07:24:11.216Z,99.90
2022-09-09T07:29:20.786Z,99.90
2022-09-09T07:34:23.960Z,99.90
2022-09-09T07:39:26.692Z,99.90
2022-09-09T07:44:29.563Z,99.90
2022-09-09T07:49:33.379Z,99.90
2022-09-09T07:54:36.505Z,99.90
2022-09-09T07:59:39.221Z,99.90
2022-09-09T08:04:41.977Z,99.90
2022-09-09T08:09:44.914Z,99.90
2022-09-09T08:14:47.866Z,99.90
2022-09-09T08:19:50.625Z,99.90
2022-09-09T08:24:54.348Z,99.90
2022-09-09T08:29:57.622Z,99.90
2022-09-09T08:35:01.600Z,99.90
2022-09-09T08:40:05.200Z,99.90
2022-09-09T08:45:50.387Z,99.90
2022-09-09T08:50:53.898Z,99.90
2022-09-09T08:56:00.507Z,99.90
2022-09-09T09:01:27.938Z,99.90
2022-09-09T09:06:39.644Z,99.90
2022-09-09T09:11:55.826Z,99.90
2022-09-09T09:17:07.991Z,99.90
2022-09-09T09:22:21.116Z,99.90
2022-09-09T09:27:43.388Z,99.90
2022-09-09T09:33:12.318Z,99.90
2022-09-09T09:43:55.586Z,99.70
2022-09-09T09:49:06.509Z,99.20
2022-09-09T09:54:18.021Z,98.90
2022-09-09T09:59:38.646Z,98.50
2022-09-09T10:04:42.743Z,97.60
2022-09-09T10:09:46.095Z,97.30
2022-09-09T10:15:40.038Z,97.10
2022-09-09T10:21:01.446Z,94.80
2022-09-09T10:26:24.156Z,95.50
2022-09-09T10:31:58.166Z,94.20
2022-09-09T10:37:01.706Z,92.80
2022-09-09T10:42:15.283Z,93.00
2022-09-09T10:47:39.875Z,92.40
2022-09-09T10:53:09.369Z,90.10
2022-09-09T10:58:28.673Z,90.00
2022-09-09T11:03:34.739Z,86.10
2022-09-09T11:08:40.391Z,84.90
2022-09-09T11:14:19.166Z,83.60
2022-09-09T11:19:37.091Z,79.60
2022-09-09T11:24:46.735Z,78.40
2022-09-09T11:30:53.858Z,68.70
2022-09-09T11:36:11.326Z,66.80
2022-09-09T11:41:21.096Z,66.30
2022-09-09T11:46:37.537Z,62.70
2022-09-09T11:51:41.087Z,60.20
2022-09-09T11:56:46.166Z,61.20
2022-09-09T12:02:13.154Z,62.10
2022-09-09T12:07:34.895Z,62.10
2022-09-09T12:12:43.180Z,63.20
2022-09-09T12:17:54.254Z,61.90
2022-09-09T12:23:18.429Z,62.20
2022-09-09T12:28:51.920Z,64.40
2022-09-09T12:33:54.684Z,63.60
2022-09-09T12:39:11.566Z,62.40
2022-09-09T12:44:14.332Z,63.40
2022-09-09T12:49:39.654Z,62.60
2022-09-09T12:54:54.829Z,62.50
2022-09-09T13:00:10.039Z,63.90
2022-09-09T13:05:40.052Z,63.70
2022-09-09T13:10:58.745Z,63.90
2022-09-09T13:16:09.456Z,63.40
2022-09-09T13:21:12.358Z,63.20
2022-09-09T13:26:28.338Z,63.10
2022-09-09T13:31:35.094Z,63.50
2022-09-09T13:36:38.016Z,63.60
2022-09-09T13:41:46.480Z,63.30
2022-09-09T13:46:49.285Z,62.70
2022-09-09T13:51:54.970Z,62.90
2022-09-09T13:56:58.860Z,63.20
2022-09-09T14:02:02.874Z,63.20
2022-09-09T14:07:05.656Z,63.40
2022-09-09T14:12:13.457Z,63.60
2022-09-09T14:17:16.156Z,63.30
2022-09-09T14:22:18.830Z,63.10
2022-09-09T14:27:21.691Z,62.50
2022-09-09T14:32:25.150Z,61.10
2022-09-09T14:37:28.974Z,61.40
2022-09-09T14:42:32.466Z,61.30
2022-09-09T14:47:35.573Z,61.70
2022-09-09T14:52:38.245Z,61.50
2022-09-09T14:57:41.362Z,60.80
2022-09-09T15:02:44.173Z,61.30
2022-09-09T15:07:47.051Z,62.00
2022-09-09T15:12:49.805Z,60.60
2022-09-09T15:17:52.456Z,58.10
2022-09-09T15:22:55.162Z,60.80
2022-09-09T15:27:58.121Z,59.80
2022-09-09T15:33:00.892Z,60.60
2022-09-09T15:38:06.027Z,60.90
2022-09-09T15:43:10.589Z,61.20
2022-09-09T15:48:13.829Z,61.20
2022-09-09T15:53:16.524Z,61.40
2022-09-09T15:58:20.385Z,60.80
2022-09-09T16:03:23.172Z,61.00
2022-09-09T16:08:26.036Z,60.70
2022-09-09T16:13:29.000Z,61.50
2022-09-09T16:18:52.806Z,62.10
2022-09-09T16:23:56.065Z,62.70
2022-09-09T16:29:02.263Z,63.50
2022-09-09T16:34:06.426Z,64.80
2022-09-09T16:39:17.189Z,65.90
2022-09-09T16:44:20.519Z,67.00
2022-09-09T16:49:23.359Z,67.80
2022-09-09T16:54:28.071Z,68.40
2022-09-09T16:59:32.625Z,69.00
2022-09-09T17:04:35.740Z,70.10
2022-09-09T17:09:38.442Z,70.80
2022-09-09T17:14:41.262Z,71.40
2022-09-09T17:19:44.125Z,71.70
2022-09-09T17:24:47.934Z,71.90
2022-09-09T17:29:50.749Z,72.20
2022-09-09T17:34:54.031Z,72.70
2022-09-09T17:39:56.842Z,73.40
2022-09-09T17:45:00.148Z,74.00
2022-09-09T17:50:03.138Z,74.70
2022-09-09T17:55:07.323Z,74.70
2022-09-09T18:00:11.456Z,74.90
2022-09-09T18:05:14.858Z,75.50
2022-09-09T18:10:17.757Z,76.10
2022-09-09T18:15:33.511Z,76.30
2022-09-09T18:20:44.680Z,76.50
2022-09-09T18:25:47.385Z,76.70
2022-09-09T18:30:50.203Z,77.20
2022-09-09T18:35:53.578Z,77.20
2022-09-09T18:40:56.377Z,77.20
2022-09-09T18:46:05.011Z,77.60
2022-09-09T18:51:10.605Z,77.60
2022-09-09T18:56:13.903Z,77.60
2022-09-09T19:01:16.805Z,77.90
2022-09-09T19:06:23.917Z,78.10
2022-09-09T19:11:28.887Z,78.40
2022-09-09T19:16:34.944Z,78.60
2022-09-09T19:21:41.005Z,78.90
2022-09-09T19:26:49.495Z,79.90
2022-09-09T19:32:36.402Z,80.70
2022-09-09T19:37:18.850Z,81.30
2022-09-09T19:42:21.948Z,82.00
2022-09-09T19:47:24.769Z,82.60
2022-09-09T19:52:27.540Z,83.10
2022-09-09T19:57:30.821Z,84.30
2022-09-09T20:02:33.824Z,85.40
2022-09-09T20:07:36.674Z,85.80
2022-09-09T20:12:39.394Z,86.40
2022-09-09T20:17:42.731Z,87.50
2022-09-09T20:22:45.447Z,88.50
2022-09-09T20:27:48.832Z,89.80
2022-09-09T20:32:51.559Z,90.30
2022-09-09T20:37:55.138Z,90.80
2022-09-09T20:42:58.233Z,91.40
2022-09-09T20:48:00.860Z,92.20
2022-09-09T20:53:04.333Z,92.30
2022-09-09T20:58:07.298Z,92.50
2022-09-09T21:03:10.071Z,92.90
2022-09-09T21:08:13.038Z,93.40
2022-09-09T21:13:16.347Z,94.20
2022-09-09T21:18:19.707Z,94.60
2022-09-09T21:23:23.114Z,95.30
2022-09-09T21:28:25.860Z,96.30
2022-09-09T21:33:29.248Z,96.60
2022-09-09T21:38:33.019Z,97.20
2022-09-09T21:43:35.926Z,98.00
2022-09-09T21:48:38.765Z,99.00
2022-09-09T21:53:43.438Z,99.70
2022-09-09T21:58:47.361Z,99.90
2022-09-09T22:03:50.471Z,99.90
2022-09-09T22:08:58.994Z,99.90
2022-09-09T22:14:02.388Z,99.90
2022-09-09T22:19:05.126Z,99.90
2022-09-09T22:24:07.876Z,99.90
2022-09-09T22:29:11.254Z,99.90
2022-09-09T22:34:14.078Z,99.90
2022-09-09T22:39:17.586Z,99.90
2022-09-09T22:44:20.821Z,99.90
2022-09-09T22:49:24.293Z,99.90
2022-09-09T22:54:27.123Z,99.90
2022-09-09T22:59:30.034Z,99.90
2022-09-09T23:04:33.029Z,99.90
2022-09-09T23:09:35.852Z,99.90
2022-09-09T23:14:38.669Z,99.90
2022-09-09T23:19:41.571Z,99.90
2022-09-09T23:24:44.272Z,99.90
2022-09-09T23:29:48.717Z,99.90
2022-09-09T23:34:51.773Z,99.90
2022-09-09T23:39:54.600Z,99.90
2022-09-09T23:44:57.464Z,99.90
2022-09-09T23:50:00.328Z,99.90
2022-09-09T23:55:04.204Z,99.90
